Time;durP1;ratioP1;P1;durP2;ratioP2;P2;SDS_P1;SDS_P2;PMS_P1;PMS_P2;Temp;Humidity;BMP_temperature;BMP_pressure;BME280_temperature;BME280_humidity;BME280_pressure;Samples;Min_cycle;Max_cycle;Signal;HPM_P1;HPM_P2
2021/03/24 00:02:09;;;;;;;29.50;22.50;;;3.90;99.20;;;;;;4922960;29;20992;-87
2021/03/24 00:04:35;;;;;;;33.33;22.33;;;3.90;99.30;;;;;;4920172;29;20837;-87
2021/03/24 00:07:01;;;;;;;32.95;22.60;;;3.90;99.30;;;;;;4920073;29;20438;-86
2021/03/24 00:19:45;;;;;;;29.97;21.47;;;3.80;99.40;;;;;;4940951;29;20452;-86
2021/03/24 00:25:38;;;;;;;29.97;19.67;;;3.70;99.70;;;;;;4921881;29;20306;-87
2021/03/24 00:31:03;;;;;;;30.38;21.00;;;3.60;99.90;;;;;;4917177;29;20497;-86
2021/03/24 00:33:29;;;;;;;27.53;21.83;;;3.60;99.90;;;;;;4920433;29;20231;-86
2021/03/24 00:35:55;;;;;;;31.13;23.40;;;3.50;99.90;;;;;;4919555;29;20465;-86
2021/03/24 00:38:24;;;;;;;32.95;23.33;;;3.50;99.90;;;;;;4919743;29;20203;-86
2021/03/24 00:40:54;;;;;;;32.58;23.40;;;3.50;99.90;;;;;;4919842;29;20212;-86
2021/03/24 00:43:21;;;;;;;33.95;25.30;;;3.50;99.90;;;;;;4920765;29;20229;-86
2021/03/24 00:45:47;;;;;;;40.88;25.40;;;3.50;99.90;;;;;;4920261;29;20214;-86
2021/03/24 00:48:18;;;;;;;32.37;23.60;;;3.50;99.90;;;;;;4921700;29;20238;-85
2021/03/24 00:50:45;;;;;;;35.03;25.55;;;3.50;99.90;;;;;;4921584;29;20465;-85
2021/03/24 00:53:12;;;;;;;40.15;24.80;;;3.40;99.90;;;;;;4931535;29;20208;-86
2021/03/24 00:55:39;;;;;;;30.52;22.65;;;3.40;99.90;;;;;;4940067;29;20195;-86
2021/03/24 00:58:06;;;;;;;33.80;24.58;;;3.40;99.90;;;;;;4922225;29;20208;-86
2021/03/24 01:00:35;;;;;;;35.17;22.35;;;3.30;99.90;;;;;;4920443;29;20211;-86
2021/03/24 01:03:02;;;;;;;34.28;23.63;;;3.30;99.90;;;;;;4919870;29;20224;-87
2021/03/24 01:05:29;;;;;;;39.92;24.88;;;3.20;99.90;;;;;;4919452;29;20222;-86
2021/03/24 01:07:57;;;;;;;26.52;22.10;;;3.20;99.90;;;;;;4920705;29;20230;-86
2021/03/24 01:10:26;;;;;;;28.40;23.80;;;3.20;99.90;;;;;;4941617;29;20273;-86
2021/03/24 01:12:52;;;;;;;41.97;23.85;;;3.20;99.90;;;;;;4942368;29;20225;-85
2021/03/24 01:15:21;;;;;;;34.33;23.17;;;3.30;99.90;;;;;;4942325;29;20206;-85
2021/03/24 01:17:47;;;;;;;34.33;23.85;;;3.30;99.90;;;;;;4941583;29;20176;-86
2021/03/24 01:20:17;;;;;;;34.75;24.90;;;3.30;99.90;;;;;;4940545;29;20264;-86
2021/03/24 01:22:43;;;;;;;33.80;22.83;;;3.30;99.90;;;;;;4921447;29;20225;-87
2021/03/24 01:25:11;;;;;;;29.73;23.45;;;3.20;99.90;;;;;;4932637;29;20185;-86
2021/03/24 01:31:14;;;;;;;38.78;25.95;;;3.10;99.90;;;;;;4876229;29;20257;-85
2021/03/24 01:33:40;;;;;;;33.88;23.30;;;3.00;99.90;;;;;;4924044;29;20222;-87
2021/03/24 01:36:07;;;;;;;35.60;25.70;;;3.00;99.90;;;;;;4919204;29;20203;-87
2021/03/24 01:38:34;;;;;;;35.55;24.35;;;3.00;99.90;;;;;;4919327;29;20255;-87
2021/03/24 01:41:01;;;;;;;30.58;24.25;;;3.00;99.90;;;;;;4917779;29;20211;-86
2021/03/24 01:43:30;;;;;;;36.17;24.50;;;3.00;99.90;;;;;;4918512;29;20586;-87
2021/03/24 01:46:26;;;;;;;34.13;24.10;;;2.90;99.90;;;;;;4918144;29;20239;-86
2021/03/24 01:48:55;;;;;;;37.17;23.92;;;2.80;99.90;;;;;;4919081;29;20220;-86
2021/03/24 01:51:26;;;;;;;34.92;22.15;;;2.80;99.90;;;;;;4918600;29;20199;-86
2021/03/24 01:53:53;;;;;;;38.25;24.50;;;2.80;99.90;;;;;;4918807;29;20752;-87
2021/03/24 01:56:20;;;;;;;35.47;24.67;;;2.70;99.90;;;;;;4925633;29;20220;-86
2021/03/24 01:58:47;;;;;;;28.15;22.25;;;2.70;99.90;;;;;;4923255;29;20313;-87
2021/03/24 02:01:17;;;;;;;34.95;24.17;;;2.80;99.90;;;;;;4919609;29;20607;-86
2021/03/24 02:03:44;;;;;;;36.97;26.10;;;2.70;99.90;;;;;;4921499;29;20229;-86
2021/03/24 02:06:16;;;;;;;35.30;25.27;;;2.70;99.90;;;;;;4920025;29;20221;-86
2021/03/24 02:08:48;;;;;;;32.38;24.52;;;2.70;99.90;;;;;;4918446;29;20223;-87
2021/03/24 02:11:19;;;;;;;34.60;21.98;;;2.70;99.90;;;;;;4918771;29;20440;-87
2021/03/24 02:13:48;;;;;;;38.20;24.92;;;2.60;99.90;;;;;;4917598;29;20594;-87
2021/03/24 02:16:21;;;;;;;35.40;24.30;;;2.60;99.90;;;;;;4918179;29;20677;-86
2021/03/24 02:18:50;;;;;;;32.83;23.38;;;2.60;99.90;;;;;;4919093;29;20236;-86
2021/03/24 02:21:25;;;;;;;35.92;25.00;;;2.50;99.90;;;;;;4919394;29;20760;-86
2021/03/24 02:23:59;;;;;;;36.53;25.67;;;2.50;99.90;;;;;;4938617;29;20235;-86
2021/03/24 02:26:36;;;;;;;33.67;24.80;;;2.50;99.90;;;;;;4930593;29;20223;-86
2021/03/24 02:29:50;;;;;;;34.60;27.88;;;2.60;99.90;;;;;;4922523;29;20688;-86
2021/03/24 02:42:54;;;;;;;35.40;22.98;;;2.40;99.90;;;;;;4792354;29;20208;-86
2021/03/24 02:45:24;;;;;;;34.55;23.27;;;2.30;99.90;;;;;;4897216;29;20220;-87
2021/03/24 02:47:52;;;;;;;35.85;25.85;;;2.30;99.90;;;;;;4901636;29;20213;-87
2021/03/24 02:50:21;;;;;;;33.65;25.13;;;2.30;99.90;;;;;;4919663;29;20215;-87
2021/03/24 02:52:48;;;;;;;37.97;26.48;;;2.30;99.90;;;;;;4939675;29;20230;-87
2021/03/24 02:55:17;;;;;;;39.00;24.25;;;2.30;99.90;;;;;;4936429;29;20628;-86
2021/03/24 02:57:43;;;;;;;35.70;24.65;;;2.30;99.90;;;;;;4923233;29;20218;-86
2021/03/24 03:00:13;;;;;;;37.42;26.10;;;2.30;99.90;;;;;;4921796;29;20631;-87
2021/03/24 03:02:46;;;;;;;38.58;25.60;;;2.30;99.90;;;;;;4921274;29;20257;-86
2021/03/24 03:05:16;;;;;;;35.28;25.25;;;2.30;99.90;;;;;;4921853;29;20680;-86
2021/03/24 03:07:46;;;;;;;37.15;24.10;;;2.30;99.90;;;;;;4920935;29;20195;-86
2021/03/24 03:10:17;;;;;;;39.08;25.80;;;2.30;99.90;;;;;;4921663;29;20207;-87
2021/03/24 03:12:52;;;;;;;34.67;24.33;;;2.30;99.90;;;;;;4921187;29;20231;-87
2021/03/24 03:15:24;;;;;;;33.15;24.33;;;2.30;99.90;;;;;;4920703;29;20672;-86
2021/03/24 03:17:55;;;;;;;38.00;26.55;;;2.30;99.90;;;;;;4922060;29;20527;-86
2021/03/24 03:20:27;;;;;;;32.38;23.67;;;2.30;99.90;;;;;;4920462;29;20632;-86
2021/03/24 03:22:59;;;;;;;30.50;24.58;;;2.20;99.90;;;;;;4920982;29;20227;-86
2021/03/24 03:25:29;;;;;;;31.63;22.77;;;2.20;99.90;;;;;;4938938;29;20210;-86
2021/03/24 03:27:58;;;;;;;38.78;25.10;;;2.20;99.90;;;;;;4940540;29;20187;-86
2021/03/24 03:30:27;;;;;;;33.35;25.15;;;2.20;99.90;;;;;;4940083;29;20195;-86
2021/03/24 03:32:59;;;;;;;36.47;25.83;;;2.20;99.90;;;;;;4922342;29;20221;-86
2021/03/24 03:35:28;;;;;;;34.05;24.10;;;2.10;99.90;;;;;;4920907;29;20211;-86
2021/03/24 03:37:57;;;;;;;32.75;24.60;;;2.20;99.90;;;;;;4925711;29;20212;-85
2021/03/24 03:40:26;;;;;;;28.98;23.25;;;2.10;99.90;;;;;;4925703;29;20558;-86
2021/03/24 03:42:54;;;;;;;32.30;23.55;;;2.10;99.90;;;;;;4920608;29;20232;-87
2021/03/24 03:45:22;;;;;;;34.83;23.90;;;2.10;99.90;;;;;;4920423;29;20254;-87
2021/03/24 03:47:48;;;;;;;32.83;22.88;;;2.10;99.90;;;;;;4929752;29;20211;-86
2021/03/24 03:50:24;;;;;;;30.45;23.40;;;2.00;99.90;;;;;;4923060;29;20203;-87
2021/03/24 03:53:01;;;;;;;30.20;21.00;;;1.90;99.90;;;;;;4923249;29;20230;-86
2021/03/24 03:55:39;;;;;;;37.20;22.35;;;1.90;99.90;;;;;;4921163;29;20210;-86
2021/03/24 03:58:12;;;;;;;37.03;24.23;;;1.90;99.90;;;;;;4923353;29;20203;-86
2021/03/24 04:00:45;;;;;;;32.58;23.42;;;1.80;99.90;;;;;;4924236;29;20684;-86
2021/03/24 04:03:15;;;;;;;35.20;23.17;;;1.90;99.90;;;;;;4919961;29;20226;-86
2021/03/24 04:05:45;;;;;;;34.35;25.60;;;1.80;99.90;;;;;;4924257;29;20211;-86
2021/03/24 04:08:16;;;;;;;31.77;24.13;;;1.70;99.90;;;;;;4921691;29;20326;-86
2021/03/24 04:10:50;;;;;;;40.35;25.17;;;1.80;99.90;;;;;;4919753;29;20211;-86
2021/03/24 04:25:07;;;;;;;40.10;28.40;;;1.70;99.90;;;;;;4756780;30;20242;-82
2021/03/24 04:45:45;;;;;;;35.97;24.33;;;1.70;99.90;;;;;;4774165;30;20219;-83
2021/03/24 04:52:03;;;;;;;34.30;25.25;;;1.60;99.90;;;;;;4889184;29;20210;-84
2021/03/24 05:05:02;;;;;;;;;;;;;;;;;;;;;
2021/03/24 05:19:10;;;;;;;29.98;22.35;;;1.60;99.90;;;;;;4920768;29;20215;-83
2021/03/24 05:29:00;;;;;;;35.83;22.45;;;1.50;99.90;;;;;;4824741;29;20293;-84
2021/03/24 05:52:19;;;;;;;36.35;22.48;;;1.50;99.90;;;;;;4851511;29;20200;-85
2021/03/24 05:58:37;;;;;;;28.75;21.48;;;1.60;99.90;;;;;;4902974;29;20215;-86
2021/03/24 06:05:45;;;;;;;;;;;;;;;;;;;;;
2021/03/24 06:08:53;;;;;;;33.75;23.40;;;1.80;99.90;;;;;;4913197;29;20209;-83
2021/03/24 06:11:45;;;;;;;38.47;25.65;;;1.90;99.90;;;;;;4927055;29;20238;-91
2021/03/24 06:14:57;;;;;;;32.17;22.85;;;1.90;99.90;;;;;;4938490;29;20234;-88
2021/03/24 06:17:44;;;;;;;34.22;23.95;;;2.00;99.90;;;;;;4889925;29;20207;-83
2021/03/24 06:20:31;;;;;;;36.25;22.30;;;2.10;99.90;;;;;;4919843;29;20203;-83
2021/03/24 06:23:57;;;;;;;35.55;21.80;;;2.10;99.90;;;;;;4914709;29;20227;-83
2021/03/24 06:26:38;;;;;;;33.00;23.17;;;2.10;99.90;;;;;;4825809;29;20231;-84
2021/03/24 06:29:19;;;;;;;32.05;21.85;;;2.20;99.90;;;;;;4866999;29;20251;-84
2021/03/24 06:32:11;;;;;;;35.13;24.25;;;2.20;99.90;;;;;;4908475;29;20212;-84
2021/03/24 06:35:12;;;;;;;35.65;24.60;;;2.20;99.90;;;;;;4927473;29;20211;-84
2021/03/24 06:37:58;;;;;;;35.50;25.48;;;2.30;99.90;;;;;;4919828;29;20277;-83
2021/03/24 06:40:43;;;;;;;34.88;24.02;;;2.40;99.90;;;;;;4926959;29;20354;-84
2021/03/24 06:43:29;;;;;;;37.10;22.63;;;2.50;99.90;;;;;;4922380;29;20224;-84
2021/03/24 06:46:10;;;;;;;39.50;24.27;;;2.50;99.90;;;;;;4924667;29;20207;-84
2021/03/24 06:48:48;;;;;;;32.28;25.65;;;2.60;99.90;;;;;;4929818;29;20226;-83
2021/03/24 06:52:06;;;;;;;34.55;24.83;;;2.70;99.90;;;;;;4934959;29;20262;-84
2021/03/24 06:55:23;;;;;;;38.30;26.10;;;2.70;99.90;;;;;;4924788;29;20203;-83
2021/03/24 06:58:26;;;;;;;30.38;23.67;;;2.80;99.90;;;;;;4913168;29;20212;-83
2021/03/24 07:01:12;;;;;;;35.05;24.50;;;3.00;99.90;;;;;;4920298;29;20633;-83
2021/03/24 07:04:30;;;;;;;38.83;25.90;;;3.10;99.90;;;;;;4937590;29;20242;-83
2021/03/24 07:07:15;;;;;;;34.80;24.30;;;3.10;99.90;;;;;;4938281;29;20732;-83
2021/03/24 07:09:51;;;;;;;35.30;22.75;;;3.20;99.90;;;;;;4930216;29;20274;-84
2021/03/24 07:12:27;;;;;;;37.85;23.77;;;3.40;99.90;;;;;;4933612;29;20227;-84
2021/03/24 07:15:19;;;;;;;34.85;24.10;;;3.40;99.90;;;;;;4928819;29;20320;-84
2021/03/24 07:18:09;;;;;;;33.67;22.65;;;3.50;99.90;;;;;;4923425;29;20235;-84
2021/03/24 07:21:10;;;;;;;29.35;23.83;;;3.50;99.90;;;;;;4934130;29;20213;-84
2021/03/24 07:23:59;;;;;;;33.30;23.20;;;3.60;99.90;;;;;;4913108;29;20265;-84
2021/03/24 07:26:51;;;;;;;35.25;25.40;;;3.60;99.90;;;;;;4912735;29;20257;-84
2021/03/24 07:29:36;;;;;;;35.10;26.63;;;3.80;99.90;;;;;;4908269;29;20639;-84
2021/03/24 07:32:09;;;;;;;35.17;25.52;;;3.90;99.90;;;;;;4921822;29;20212;-84
2021/03/24 07:35:08;;;;;;;30.85;23.83;;;4.10;99.90;;;;;;4935666;29;20258;-84
2021/03/24 07:38:05;;;;;;;31.63;23.40;;;4.60;99.90;;;;;;4926373;29;20237;-84
2021/03/24 07:40:55;;;;;;;33.40;23.80;;;5.40;99.10;;;;;;4928177;29;20466;-84
2021/03/24 07:43:50;;;;;;;27.33;22.20;;;6.10;97.10;;;;;;4926023;29;20513;-84
2021/03/24 07:46:35;;;;;;;35.33;24.07;;;6.70;95.60;;;;;;4923245;29;20536;-85
2021/03/24 07:49:22;;;;;;;36.30;24.83;;;7.10;94.50;;;;;;4933627;29;20467;-83
2021/03/24 07:52:05;;;;;;;27.73;23.60;;;7.40;93.10;;;;;;4935656;29;20506;-84
2021/03/24 07:54:39;;;;;;;33.90;23.70;;;7.50;92.60;;;;;;4927744;29;20446;-84
2021/03/24 07:57:18;;;;;;;30.53;23.93;;;7.80;92.30;;;;;;4940596;29;20438;-82
2021/03/24 07:59:51;;;;;;;22.70;20.03;;;8.10;91.40;;;;;;4931528;29;20489;-84
2021/03/24 08:02:47;;;;;;;29.13;23.57;;;8.80;91.30;;;;;;4929395;29;20482;-83
2021/03/24 08:05:48;;;;;;;26.77;22.83;;;9.20;89.30;;;;;;4921223;29;20465;-84
2021/03/24 08:08:23;;;;;;;34.43;24.37;;;9.40;88.00;;;;;;4916992;29;20461;-83
2021/03/24 08:11:00;;;;;;;29.03;20.57;;;9.60;87.20;;;;;;4921383;29;20500;-83
2021/03/24 08:13:58;;;;;;;32.67;22.00;;;9.70;85.80;;;;;;4913050;29;20564;-83
2021/03/24 08:16:50;;;;;;;30.27;24.67;;;10.10;83.60;;;;;;4918836;29;20466;-84
2021/03/24 08:19:36;;;;;;;30.63;23.53;;;10.00;82.70;;;;;;4913668;29;20574;-83
2021/03/24 08:22:16;;;;;;;24.93;22.10;;;10.50;83.30;;;;;;4905966;29;20484;-83
2021/03/24 08:25:10;;;;;;;24.80;20.53;;;10.70;80.70;;;;;;4905009;29;20459;-83
2021/03/24 08:27:43;;;;;;;27.53;22.57;;;11.50;80.90;;;;;;4900852;29;20465;-83
2021/03/24 08:30:15;;;;;;;24.00;20.73;;;12.30;76.90;;;;;;4913046;29;20450;-84
2021/03/24 08:33:21;;;;;;;30.90;22.40;;;12.00;75.20;;;;;;4919913;29;20482;-83
2021/03/24 08:36:27;;;;;;;34.30;25.50;;;12.60;75.00;;;;;;4927168;29;20550;-84
2021/03/24 08:39:35;;;;;;;26.07;21.40;;;13.30;72.10;;;;;;4897068;29;20646;-84
2021/03/24 08:42:41;;;;;;;24.13;21.13;;;13.90;70.60;;;;;;4914891;29;20463;-84
2021/03/24 08:45:24;;;;;;;28.23;21.40;;;15.00;66.20;;;;;;4919342;29;20473;-83
2021/03/24 08:47:55;;;;;;;27.90;23.73;;;14.90;63.90;;;;;;4919347;29;20462;-84
2021/03/24 08:50:28;;;;;;;24.73;21.80;;;15.20;63.80;;;;;;4918027;29;20967;-85
2021/03/24 08:53:05;;;;;;;24.77;19.77;;;14.00;63.70;;;;;;4921289;29;20499;-84
2021/03/24 08:55:49;;;;;;;23.03;20.47;;;13.90;65.90;;;;;;4919857;29;20524;-83
2021/03/24 08:58:25;;;;;;;27.33;22.30;;;14.40;63.80;;;;;;4917764;29;20457;-83
2021/03/24 09:01:29;;;;;;;26.23;22.53;;;13.60;63.80;;;;;;4926261;29;20455;-83
2021/03/24 09:04:17;;;;;;;23.27;20.37;;;14.40;65.50;;;;;;4916068;29;20479;-84
2021/03/24 09:06:56;;;;;;;32.03;22.20;;;15.50;61.40;;;;;;4925080;29;20614;-84
2021/03/24 09:09:45;;;;;;;22.40;20.00;;;15.80;60.50;;;;;;4922895;29;20451;-84
2021/03/24 09:12:16;;;;;;;24.20;21.73;;;16.90;58.60;;;;;;4905842;29;20800;-84
2021/03/24 09:14:51;;;;;;;23.43;20.93;;;17.80;56.40;;;;;;4912829;29;20529;-86
2021/03/24 09:17:41;;;;;;;24.33;21.70;;;18.60;55.70;;;;;;4933237;29;20467;-86
2021/03/24 09:20:41;;;;;;;24.10;21.00;;;19.60;53.50;;;;;;4923121;29;20479;-85
2021/03/24 09:23:38;;;;;;;26.10;21.90;;;19.90;52.30;;;;;;4926990;29;20457;-86
2021/03/24 09:26:23;;;;;;;25.73;23.27;;;20.40;51.20;;;;;;4934384;29;20503;-84
2021/03/24 09:29:19;;;;;;;23.53;21.13;;;20.70;50.00;;;;;;4920224;29;20455;-85
2021/03/24 09:32:08;;;;;;;24.90;21.73;;;20.80;48.90;;;;;;4926673;29;20962;-87
2021/03/24 09:34:49;;;;;;;23.30;21.10;;;21.40;48.80;;;;;;4923197;29;20467;-83
2021/03/24 09:37:20;;;;;;;27.20;21.87;;;21.10;48.00;;;;;;4922538;29;20463;-83
2021/03/24 09:39:50;;;;;;;24.47;21.00;;;22.20;47.90;;;;;;4921473;29;20510;-84
2021/03/24 09:42:22;;;;;;;23.13;20.00;;;23.30;45.90;;;;;;4922679;29;20461;-83
2021/03/24 09:45:05;;;;;;;22.73;20.50;;;22.80;45.10;;;;;;4933781;29;20451;-83
2021/03/24 09:47:41;;;;;;;22.97;20.70;;;23.80;44.50;;;;;;4936253;29;20472;-84
2021/03/24 09:50:25;;;;;;;22.77;20.43;;;23.60;43.10;;;;;;4936673;29;20442;-91
2021/03/24 09:52:56;;;;;;;24.40;22.00;;;22.90;44.20;;;;;;4931221;29;20486;-91
2021/03/24 09:55:26;;;;;;;24.53;21.80;;;22.50;43.90;;;;;;4929284;29;20541;-90
2021/03/24 10:18:19;;;;;;;21.67;19.30;;;24.60;42.20;;;;;;4858911;23;20504;-82
2021/03/24 10:20:57;;;;;;;21.63;19.70;;;26.00;40.20;;;;;;4929741;29;20465;-83
2021/03/24 10:23:28;;;;;;;22.50;18.77;;;26.60;39.10;;;;;;4926155;29;20441;-83
2021/03/24 10:25:59;;;;;;;20.30;18.30;;;26.30;38.00;;;;;;4923648;29;20737;-83
2021/03/24 10:28:37;;;;;;;20.17;18.37;;;26.50;38.60;;;;;;4922012;29;20484;-85
2021/03/24 10:31:11;;;;;;;19.27;17.47;;;26.30;38.40;;;;;;4933099;29;20434;-85
2021/03/24 10:33:41;;;;;;;19.27;17.50;;;27.20;36.90;;;;;;4927320;29;20967;-84
2021/03/24 10:36:17;;;;;;;20.53;18.53;;;27.60;36.70;;;;;;4908916;29;20475;-86
2021/03/24 10:38:50;;;;;;;20.40;18.70;;;27.00;36.50;;;;;;4907185;29;20995;-85
2021/03/24 10:41:21;;;;;;;19.37;17.60;;;28.00;35.90;;;;;;4907356;29;20466;-85
2021/03/24 10:43:53;;;;;;;19.43;17.70;;;27.70;35.30;;;;;;4915183;29;20561;-85
2021/03/24 10:46:27;;;;;;;19.40;17.60;;;25.80;36.50;;;;;;4924240;29;20424;-84
2021/03/24 10:49:00;;;;;;;18.63;16.73;;;26.20;37.60;;;;;;4921910;29;20486;-84
2021/03/24 10:51:41;;;;;;;20.37;16.93;;;26.30;36.00;;;;;;4912992;29;20462;-85
2021/03/24 10:54:17;;;;;;;18.13;16.43;;;27.10;36.10;;;;;;4907131;29;20452;-84
2021/03/24 10:56:53;;;;;;;19.30;17.50;;;27.70;35.20;;;;;;4905721;29;20450;-85
2021/03/24 10:59:25;;;;;;;18.50;16.57;;;28.00;35.00;;;;;;4909376;29;20498;-85
2021/03/24 11:01:58;;;;;;;19.83;17.93;;;28.90;33.10;;;;;;4914284;29;20939;-85
2021/03/24 11:04:46;;;;;;;17.77;16.17;;;29.30;33.40;;;;;;4921904;29;20534;-85
2021/03/24 11:07:41;;;;;;;18.87;17.17;;;29.50;32.60;;;;;;4923319;29;20950;-85
2021/03/24 11:10:52;;;;;;;19.70;17.90;;;31.50;31.70;;;;;;4918846;29;21222;-84
2021/03/24 11:13:25;;;;;;;17.00;15.40;;;30.80;30.30;;;;;;4847787;29;20455;-83
2021/03/24 11:16:26;;;;;;;17.70;16.20;;;28.60;31.80;;;;;;4919347;29;20470;-84
2021/03/24 11:18:57;;;;;;;21.70;19.20;;;27.50;33.80;;;;;;4927147;29;20477;-84
2021/03/24 11:21:42;;;;;;;19.40;17.50;;;26.60;34.70;;;;;;4927228;29;20633;-83
2021/03/24 11:24:22;;;;;;;18.43;16.70;;;26.90;35.10;;;;;;4908679;29;21148;-85
2021/03/24 11:27:14;;;;;;;17.97;16.30;;;28.90;33.00;;;;;;4902682;29;20450;-84
2021/03/24 11:29:55;;;;;;;17.83;16.23;;;29.90;32.00;;;;;;4902808;29;20988;-85
2021/03/24 11:32:30;;;;;;;17.93;16.07;;;29.00;31.80;;;;;;4906165;29;20462;-85
2021/03/24 11:35:04;;;;;;;18.00;16.30;;;29.10;32.50;;;;;;4922405;29;20458;-85
2021/03/24 11:37:42;;;;;;;18.13;16.43;;;29.00;32.00;;;;;;4921915;29;20461;-83
2021/03/24 11:40:40;;;;;;;19.40;17.40;;;28.80;32.30;;;;;;4923578;29;20457;-84
2021/03/24 11:43:23;;;;;;;18.33;16.73;;;30.30;30.90;;;;;;4902821;29;20455;-84
2021/03/24 11:45:59;;;;;;;17.60;16.20;;;31.10;29.50;;;;;;4915195;29;20537;-84
2021/03/24 11:49:00;;;;;;;18.17;16.57;;;31.60;29.50;;;;;;4919593;29;20471;-85
2021/03/24 11:52:06;;;;;;;18.20;16.60;;;31.80;28.50;;;;;;4902837;29;20862;-84
2021/03/24 11:54:49;;;;;;;18.87;17.17;;;32.10;28.80;;;;;;4903688;29;20798;-85
2021/03/24 11:57:36;;;;;;;19.33;17.60;;;32.20;28.80;;;;;;4922133;29;20480;-84
2021/03/24 12:00:19;;;;;;;16.77;15.00;;;31.90;28.90;;;;;;4995628;23;20512;-92
2021/03/24 12:03:05;;;;;;;18.80;17.00;;;32.00;28.50;;;;;;4964004;28;20445;-90
2021/03/24 12:05:58;;;;;;;20.10;18.10;;;31.90;28.70;;;;;;4959150;29;20529;-91
2021/03/24 12:08:42;;;;;;;20.97;19.17;;;31.40;28.30;;;;;;4943686;29;20501;-91
2021/03/24 12:11:50;;;;;;;21.40;19.30;;;31.20;28.90;;;;;;4947628;29;20450;-91
2021/03/24 12:14:24;;;;;;;21.97;19.87;;;31.90;28.40;;;;;;4940063;29;20454;-90
2021/03/24 12:17:41;;;;;;;;;;;;;;;;;;;;;
2021/03/24 12:20:33;;;;;;;19.70;18.00;;;32.00;28.10;;;;;;4936660;29;20458;-91
2021/03/24 12:23:00;;;;;;;19.93;18.43;;;32.60;28.20;;;;;;4921388;29;20465;-91
2021/03/24 12:25:41;;;;;;;19.93;17.97;;;32.90;27.30;;;;;;4934716;29;20884;-91
2021/03/24 12:28:11;;;;;;;21.23;19.43;;;32.50;27.70;;;;;;4948093;29;20430;-89
2021/03/24 12:31:12;;;;;;;21.10;19.10;;;29.70;28.00;;;;;;4960803;29;20479;-92
2021/03/24 12:37:17;;;;;;;20.47;18.50;;;29.60;30.10;;;;;;4944101;28;20513;-90
2021/03/24 12:39:44;;;;;;;19.87;17.87;;;29.00;30.20;;;;;;4922864;29;20482;-91
2021/03/24 12:42:47;;;;;;;20.50;18.50;;;30.30;29.40;;;;;;4942675;29;20466;-90
2021/03/24 12:48:27;;;;;;;19.90;17.83;;;30.20;29.30;;;;;;4940044;28;21013;-91
2021/03/24 12:51:14;;;;;;;19.93;18.07;;;29.20;29.60;;;;;;4938917;29;20600;-91
2021/03/24 12:57:21;;;;;;;21.80;19.73;;;30.40;29.30;;;;;;4938948;28;20438;-92
2021/03/24 13:00:21;;;;;;;20.37;18.37;;;30.90;29.20;;;;;;4939737;28;20493;-92
2021/03/24 13:03:17;;;;;;;20.27;18.03;;;30.50;28.70;;;;;;4941843;28;20961;-91
2021/03/24 13:05:52;;;;;;;21.80;19.70;;;30.60;28.90;;;;;;4895166;29;20461;-91
2021/03/24 13:08:30;;;;;;;18.07;16.33;;;30.90;28.70;;;;;;4938961;29;20488;-86
2021/03/24 13:11:04;;;;;;;19.40;17.60;;;32.00;28.20;;;;;;4931660;29;20488;-87
2021/03/24 13:13:46;;;;;;;21.27;19.30;;;32.20;28.30;;;;;;4945545;29;20449;-87
2021/03/24 13:16:19;;;;;;;20.93;19.13;;;31.30;28.40;;;;;;4936783;29;20454;-87
2021/03/24 13:18:56;;;;;;;19.93;17.90;;;31.80;28.10;;;;;;4941401;29;20492;-89
2021/03/24 13:21:49;;;;;;;19.10;17.30;;;31.50;28.40;;;;;;4932607;29;20529;-90
2021/03/24 13:24:51;;;;;;;20.03;18.30;;;31.00;28.80;;;;;;4939013;29;20443;-89
2021/03/24 13:27:37;;;;;;;19.93;17.97;;;28.60;29.50;;;;;;4941695;28;20456;-89
2021/03/24 13:30:15;;;;;;;22.53;20.33;;;28.30;31.40;;;;;;4932960;29;20501;-90
2021/03/24 13:32:49;;;;;;;20.07;18.13;;;27.40;31.60;;;;;;4946220;29;20423;-90
2021/03/24 13:35:27;;;;;;;19.50;17.77;;;27.70;32.10;;;;;;4956797;29;20485;-90
2021/03/24 13:37:53;;;;;;;19.63;17.90;;;27.70;32.20;;;;;;4947557;29;20453;-89
2021/03/24 13:40:24;;;;;;;20.97;18.87;;;26.90;32.60;;;;;;4940944;29;20453;-89
2021/03/24 13:42:57;;;;;;;21.07;19.03;;;26.00;33.60;;;;;;4938062;29;20946;-89
2021/03/24 13:45:32;;;;;;;21.20;19.00;;;25.00;34.80;;;;;;4938523;28;20843;-89
2021/03/24 13:48:09;;;;;;;19.37;17.40;;;24.50;35.50;;;;;;4946333;29;20439;-91
2021/03/24 13:50:40;;;;;;;19.97;17.90;;;24.50;35.70;;;;;;4957775;29;20498;-90
2021/03/24 13:53:11;;;;;;;18.00;16.20;;;25.10;35.80;;;;;;4940016;29;20468;-90
2021/03/24 13:56:10;;;;;;;17.90;16.10;;;24.70;35.70;;;;;;4945001;29;20434;-91
2021/03/24 13:58:58;;;;;;;19.67;17.50;;;24.90;35.70;;;;;;4932169;28;20474;-90
2021/03/24 14:01:30;;;;;;;19.57;17.50;;;24.50;35.60;;;;;;4950070;29;20519;-89
2021/03/24 14:04:03;;;;;;;19.33;16.50;;;24.70;36.30;;;;;;4944804;29;20535;-90
2021/03/24 14:06:52;;;;;;;20.30;18.17;;;25.40;35.60;;;;;;4945929;29;20443;-89
2021/03/24 14:09:22;;;;;;;17.90;16.10;;;25.40;34.80;;;;;;4947307;29;20487;-90
2021/03/24 14:12:13;;;;;;;19.83;18.00;;;24.80;35.30;;;;;;4949567;29;20582;-90
2021/03/24 14:15:19;;;;;;;18.47;16.47;;;24.40;35.90;;;;;;4947483;29;20841;-88
2021/03/24 14:18:09;;;;;;;18.33;16.33;;;23.20;37.70;;;;;;4905659;29;20456;-90
2021/03/24 14:20:48;;;;;;;18.93;16.90;;;23.60;38.20;;;;;;4955433;28;20440;-90
2021/03/24 14:23:24;;;;;;;17.90;15.90;;;23.30;37.80;;;;;;4949672;29;20453;-89
2021/03/24 14:26:00;;;;;;;18.70;16.93;;;23.30;38.40;;;;;;4954517;29;20468;-91
2021/03/24 14:28:44;;;;;;;18.90;17.07;;;22.60;38.90;;;;;;4944665;29;20521;-90
2021/03/24 14:31:40;;;;;;;21.30;17.43;;;22.50;39.50;;;;;;4943933;29;20449;-89
2021/03/24 14:34:21;;;;;;;16.73;14.07;;;22.50;39.40;;;;;;4948235;29;20479;-89
2021/03/24 14:36:51;;;;;;;17.70;15.27;;;22.40;39.30;;;;;;4951224;29;20540;-89
2021/03/24 14:39:28;;;;;;;20.43;18.37;;;22.70;39.30;;;;;;4953480;29;20512;-91
2021/03/24 14:42:31;;;;;;;18.03;16.13;;;22.70;38.40;;;;;;4951132;29;20465;-90
2021/03/24 14:49:03;;;;;;;17.03;15.27;;;21.50;40.50;;;;;;4946229;28;20896;-90
2021/03/24 14:51:41;;;;;;;19.40;17.40;;;21.40;40.70;;;;;;4952860;29;20479;-91
2021/03/24 14:54:27;;;;;;;18.03;15.30;;;21.70;41.20;;;;;;4952751;29;20446;-91
2021/03/24 14:57:03;;;;;;;17.97;16.13;;;21.90;40.70;;;;;;4937406;29;20532;-89
2021/03/24 14:59:42;;;;;;;17.83;15.33;;;22.00;40.40;;;;;;4944528;28;20469;-90
2021/03/24 15:02:48;;;;;;;17.23;15.40;;;22.00;40.40;;;;;;5021994;23;20503;-91
2021/03/24 15:05:40;;;;;;;19.70;16.30;;;22.00;40.30;;;;;;4953177;28;20533;-91
2021/03/24 15:08:30;;;;;;;17.53;14.60;;;21.90;40.40;;;;;;4953828;29;20477;-92
2021/03/24 15:11:38;;;;;;;16.47;14.83;;;21.70;40.10;;;;;;4950231;29;20483;-91
2021/03/24 15:14:30;;;;;;;17.47;15.13;;;20.90;40.60;;;;;;4949796;28;20456;-90
2021/03/24 15:17:20;;;;;;;15.40;13.90;;;21.00;42.00;;;;;;4952526;29;20441;-91
2021/03/24 15:20:30;;;;;;;20.07;17.70;;;20.70;42.00;;;;;;4953777;29;20476;-92
2021/03/24 15:23:24;;;;;;;17.90;14.67;;;21.40;41.20;;;;;;4943843;29;20838;-90
2021/03/24 15:25:57;;;;;;;15.50;14.00;;;22.40;41.00;;;;;;4951571;29;20452;-91
2021/03/24 15:28:41;;;;;;;16.67;14.30;;;23.10;39.70;;;;;;4957453;29;21273;-90
2021/03/24 15:31:33;;;;;;;16.33;14.63;;;24.00;38.10;;;;;;4947998;29;20482;-91
2021/03/24 15:34:26;;;;;;;16.30;14.60;;;24.60;37.20;;;;;;4948545;29;20451;-92
2021/03/24 15:37:06;;;;;;;15.80;14.13;;;24.60;36.70;;;;;;4941264;28;20467;-91
2021/03/24 15:39:47;;;;;;;16.27;14.57;;;24.40;37.10;;;;;;4942756;29;20541;-90
2021/03/24 15:42:25;;;;;;;15.47;13.97;;;24.20;36.70;;;;;;4943539;29;20807;-91
2021/03/24 15:44:59;;;;;;;16.73;15.13;;;24.30;36.80;;;;;;4927031;29;20463;-91
2021/03/24 15:47:32;;;;;;;14.10;12.70;;;23.60;36.70;;;;;;4940969;29;20945;-91
2021/03/24 15:50:31;;;;;;;18.27;13.47;;;23.40;38.00;;;;;;4941669;29;20516;-91
2021/03/24 15:53:15;;;;;;;16.70;13.87;;;23.40;38.10;;;;;;4942267;29;20454;-91
2021/03/24 15:56:20;;;;;;;15.37;13.33;;;22.50;38.20;;;;;;4947597;29;20430;-91
2021/03/24 15:59:01;;;;;;;13.87;12.13;;;22.40;38.90;;;;;;4971133;28;20482;-87
2021/03/24 16:01:34;;;;;;;18.90;14.03;;;21.40;40.10;;;;;;4967287;28;20467;-92
2021/03/24 16:04:40;;;;;;;13.17;11.90;;;20.50;41.50;;;;;;4955566;28;20446;-89
2021/03/24 16:07:20;;;;;;;14.00;12.30;;;19.70;43.00;;;;;;4950976;29;20816;-90
2021/03/24 16:10:08;;;;;;;15.80;13.57;;;19.10;44.00;;;;;;4957618;29;20489;-89
2021/03/24 16:12:53;;;;;;;16.80;12.80;;;18.50;44.50;;;;;;4959421;28;20457;-91
2021/03/24 16:16:15;;;;;;;16.40;13.03;;;17.90;45.80;;;;;;4968718;23;20488;-83
2021/03/24 16:22:43;;;;;;;15.43;13.40;;;17.30;47.40;;;;;;4959839;28;20437;-83
2021/03/24 16:25:35;;;;;;;14.37;12.87;;;17.10;48.00;;;;;;4874559;29;21056;-83